createdAt,value
2023-04-22T00:00:19.854Z,100868.33
2023-04-22T00:02:49.425Z,100877.70
2023-04-22T00:05:20.633Z,100874.08
2023-04-22T00:07:50.324Z,100873.56
2023-04-22T00:10:19.616Z,100868.28
2023-04-22T00:12:48.933Z,100874.41
2023-04-22T00:15:20.054Z,100870.89
2023-04-22T00:17:50.234Z,100865.05
2023-04-22T00:20:22.588Z,100872.89
2023-04-22T00:22:52.012Z,100873.54
2023-04-22T00:25:21.317Z,100870.77
2023-04-22T00:27:50.704Z,100867.59
2023-04-22T00:30:20.048Z,100869.56
2023-04-22T00:32:50.022Z,100870.64
2023-04-22T00:35:19.350Z,100866.42
2023-04-22T00:37:48.892Z,100856.56
2023-04-22T00:40:18.300Z,100863.25
2023-04-22T00:42:48.253Z,100866.27
2023-04-22T00:45:18.679Z,100870.02
2023-04-22T00:47:49.436Z,100865.02
2023-04-22T00:50:18.983Z,100871.34
2023-04-22T00:52:48.327Z,100871.92
2023-04-22T00:55:17.657Z,100877.78
2023-04-22T00:57:47.801Z,100883.83
2023-04-22T01:00:17.722Z,100878.18
2023-04-22T01:02:48.265Z,100882.66
2023-04-22T01:05:18.082Z,100879.06
2023-04-22T01:07:47.647Z,100874.42
2023-04-22T01:10:17.660Z,100876.64
2023-04-22T01:12:46.982Z,100871.55
2023-04-22T01:15:16.448Z,100870.95
2023-04-22T01:17:46.990Z,100872.84
2023-04-22T01:20:16.615Z,100871.34
2023-04-22T01:22:46.942Z,100867.50
2023-04-22T01:25:16.242Z,100858.26
2023-04-22T01:27:45.595Z,100861.20
2023-04-22T01:30:15.418Z,100857.47
2023-04-22T01:32:45.010Z,100857.53
2023-04-22T01:35:14.407Z,100860.05
2023-04-22T01:37:44.033Z,100862.84
2023-04-22T01:40:14.869Z,100859.94
2023-04-22T01:42:44.138Z,100865.13
2023-04-22T01:45:13.580Z,100864.41
2023-04-22T01:47:43.244Z,100860.95
2023-04-22T01:50:12.541Z,100867.59
2023-04-22T01:52:42.761Z,100863.20
2023-04-22T01:55:12.028Z,100864.06
2023-04-22T01:57:41.396Z,100858.22
2023-04-22T02:00:11.556Z,100861.13
2023-04-22T02:02:45.884Z,100864.76
2023-04-22T02:05:16.087Z,100861.78
2023-04-22T02:07:47.582Z,100860.67
2023-04-22T02:10:18.214Z,100861.03
2023-04-22T02:12:48.168Z,100861.59
2023-04-22T02:15:17.477Z,100856.56
2023-04-22T02:17:46.843Z,100854.83
2023-04-22T02:20:16.145Z,100854.92
2023-04-22T02:22:46.893Z,100852.31
2023-04-22T02:25:16.728Z,100854.34
2023-04-22T02:27:46.014Z,100848.85
2023-04-22T02:30:16.534Z,100850.62
2023-04-22T02:32:46.236Z,100850.06
2023-04-22T02:35:15.564Z,100843.53
2023-04-22T02:37:45.282Z,100845.69
2023-04-22T02:40:14.527Z,100846.50
2023-04-22T02:42:43.806Z,100837.81
2023-04-22T02:45:13.161Z,100838.62
2023-04-22T02:47:44.198Z,100828.63
2023-04-22T02:50:13.922Z,100827.58
2023-04-22T02:52:43.549Z,100826.07
2023-04-22T02:55:13.057Z,100825.25
2023-04-22T02:57:42.685Z,100820.74
2023-04-22T03:00:12.722Z,100822.05
2023-04-22T03:02:42.932Z,100820.63
2023-04-22T03:05:14.663Z,100815.41
2023-04-22T03:07:44.713Z,100815.95
2023-04-22T03:10:14.042Z,100816.56
2023-04-22T03:12:44.472Z,100811.62
2023-04-22T03:15:14.332Z,100818.46
2023-04-22T03:17:43.961Z,100808.46
2023-04-22T03:20:15.233Z,100806.84
2023-04-22T03:22:44.607Z,100794.08
2023-04-22T03:25:14.896Z,100793.41
2023-04-22T03:27:45.921Z,100798.25
2023-04-22T03:30:15.378Z,100795.17
2023-04-22T03:32:44.901Z,100799.09
2023-04-22T03:35:16.397Z,100793.87
2023-04-22T03:37:47.176Z,100798.68
2023-04-22T03:40:18.313Z,100796.95
2023-04-22T03:42:47.690Z,100789.84
2023-04-22T03:45:19.066Z,100784.76
2023-04-22T03:47:50.787Z,100776.55
2023-04-22T03:50:22.154Z,100774.78
2023-04-22T03:52:52.318Z,100777.72
2023-04-22T03:55:23.401Z,100776.73
2023-04-22T03:57:53.960Z,100770.55
2023-04-22T04:00:23.433Z,100768.67
2023-04-22T04:02:54.769Z,100768.45
2023-04-22T04:05:26.415Z,100760.86
2023-04-22T04:07:56.674Z,100766.86
2023-04-22T04:10:27.243Z,100759.30
2023-04-22T04:12:58.192Z,100762.48
2023-04-22T04:15:27.953Z,100754.17
2023-04-22T04:17:57.334Z,100748.77
2023-04-22T04:20:27.961Z,100743.64
2023-04-22T04:22:57.331Z,100745.52
2023-04-22T04:25:27.613Z,100738.27
2023-04-22T04:27:56.975Z,100733.59
2023-04-22T04:30:26.323Z,100733.73
2023-04-22T04:32:57.925Z,100738.27
2023-04-22T04:35:28.390Z,100737.06
2023-04-22T04:37:59.435Z,100740.28
2023-04-22T04:40:31.911Z,100733.17
2023-04-22T04:43:13.032Z,100735.68
2023-04-22T04:45:48.709Z,100737.31
2023-04-22T04:48:20.374Z,100735.79
2023-04-22T04:50:53.084Z,100738.27
2023-04-22T04:53:23.727Z,100735.26
2023-04-22T04:55:53.630Z,100742.61
2023-04-22T04:58:24.153Z,100740.23
2023-04-22T05:00:55.376Z,100737.05
2023-04-22T05:03:26.656Z,100738.72
2023-04-22T05:05:56.839Z,100730.78
2023-04-22T05:08:26.574Z,100735.80
2023-04-22T05:10:57.554Z,100735.97
2023-04-22T05:13:27.650Z,100735.56
2023-04-22T05:15:57.722Z,100743.03
2023-04-22T05:18:27.326Z,100741.72
2023-04-22T05:20:58.802Z,100744.16
2023-04-22T05:23:30.819Z,100747.97
2023-04-22T05:26:00.812Z,100742.13
2023-04-22T05:28:31.585Z,100744.20
2023-04-22T05:31:00.996Z,100746.77
2023-04-22T05:33:31.343Z,100748.81
2023-04-22T05:36:00.891Z,100747.98
2023-04-22T05:38:30.203Z,100754.47
2023-04-22T05:40:59.574Z,100754.61
2023-04-22T05:43:29.052Z,100756.09
2023-04-22T05:46:06.210Z,100751.98
2023-04-22T05:48:37.000Z,100751.08
2023-04-22T05:51:08.259Z,100749.44
2023-04-22T05:53:37.834Z,100751.60
2023-04-22T05:56:07.402Z,100744.74
2023-04-22T05:58:37.731Z,100748.52
2023-04-22T06:01:12.142Z,100750.89
2023-04-22T06:03:43.616Z,100749.09
2023-04-22T06:08:43.208Z,100738.34
2023-04-22T06:11:13.099Z,100731.46
2023-04-22T06:13:42.406Z,100734.67
2023-04-22T06:16:13.559Z,100735.98
2023-04-22T06:18:44.707Z,100725.02
2023-04-22T06:21:14.436Z,100723.47
2023-04-22T06:23:44.305Z,100723.34
2023-04-22T06:26:14.163Z,100715.61
2023-04-22T06:28:43.870Z,100717.52
2023-04-22T06:31:15.233Z,100718.48
2023-04-22T06:33:44.896Z,100710.39
2023-04-22T06:36:14.928Z,100711.69
2023-04-22T06:38:45.961Z,100715.47
2023-04-22T06:41:26.412Z,100704.02
2023-04-22T06:43:57.415Z,100704.73
2023-04-22T06:46:46.772Z,100704.81
2023-04-22T06:49:26.705Z,100701.81
2023-04-22T06:52:00.911Z,100694.03
2023-04-22T06:54:31.956Z,100692.52
2023-04-22T06:57:01.608Z,100693.83
2023-04-22T06:59:31.327Z,100699.84
2023-04-22T07:02:01.358Z,100693.27
2023-04-22T07:04:32.117Z,100699.98
2023-04-22T07:07:01.892Z,100702.98
2023-04-22T07:09:31.661Z,100702.88
2023-04-22T07:12:01.458Z,100710.06
2023-04-22T07:14:33.188Z,100713.23
2023-04-22T07:17:02.567Z,100716.90
2023-04-22T07:19:33.311Z,100725.44
2023-04-22T07:22:03.673Z,100729.17
2023-04-22T07:24:33.210Z,100729.03
2023-04-22T07:27:03.196Z,100730.76
2023-04-22T07:29:32.502Z,100723.92
2023-04-22T07:32:02.038Z,100714.81
2023-04-22T07:34:31.322Z,100709.34
2023-04-22T07:37:00.728Z,100704.64
2023-04-22T07:39:30.005Z,100703.28
2023-04-22T07:41:59.555Z,100705.33
2023-04-22T07:44:29.016Z,100721.70
2023-04-22T07:46:58.965Z,100716.83
2023-04-22T07:49:28.260Z,100704.38
2023-04-22T07:51:58.197Z,100686.15
2023-04-22T07:54:30.620Z,100685.30
2023-04-22T07:57:00.068Z,100676.48
2023-04-22T07:59:29.345Z,100674.36
2023-04-22T08:01:58.664Z,100676.25
2023-04-22T08:04:28.416Z,100684.51
2023-04-22T08:06:58.374Z,100679.81
2023-04-22T08:09:27.717Z,100683.73
2023-04-22T08:11:58.644Z,100693.31
2023-04-22T08:14:28.192Z,100690.84
2023-04-22T08:16:57.636Z,100685.36
2023-04-22T08:19:26.977Z,100682.31
2023-04-22T08:21:58.047Z,100680.05
2023-04-22T08:24:27.373Z,100687.77
2023-04-22T08:26:59.767Z,100672.12
2023-04-22T08:29:29.458Z,100671.18
2023-04-22T08:31:58.724Z,100667.91
2023-04-22T08:34:28.999Z,100668.88
2023-04-22T08:36:58.655Z,100670.48
2023-04-22T08:39:28.214Z,100663.69
2023-04-22T08:41:58.296Z,100650.33
2023-04-22T08:44:28.362Z,100657.45
2023-04-22T08:46:57.892Z,100657.98
2023-04-22T08:49:28.022Z,100657.02
2023-04-22T08:51:57.420Z,100645.41
2023-04-22T08:54:27.173Z,100634.55
2023-04-22T08:56:56.841Z,100630.91
2023-04-22T08:59:26.625Z,100626.64
2023-04-22T09:01:56.875Z,100602.42
2023-04-22T09:04:26.505Z,100592.94
2023-04-22T09:06:56.248Z,100569.44
2023-04-22T09:09:26.210Z,100552.84
2023-04-22T09:11:55.902Z,100540.71
2023-04-22T09:14:26.719Z,100558.49
2023-04-22T09:16:57.786Z,100579.39
2023-04-22T09:19:27.173Z,100592.42
2023-04-22T09:22:01.111Z,100607.14
2023-04-22T09:24:31.274Z,100622.28
2023-04-22T09:27:03.505Z,100623.16
2023-04-22T09:29:32.824Z,100623.84
2023-04-22T09:32:02.290Z,100624.42
2023-04-22T09:34:32.486Z,100616.31
2023-04-22T09:37:01.745Z,100612.02
2023-04-22T09:39:31.514Z,100614.89
2023-04-22T09:42:01.612Z,100619.06
2023-04-22T09:44:31.186Z,100615.75
2023-04-22T09:47:00.582Z,100620.28
2023-04-22T09:49:30.243Z,100626.44
2023-04-22T09:51:59.630Z,100615.07
2023-04-22T09:54:30.547Z,100613.86
2023-04-22T09:56:59.843Z,100613.28
2023-04-22T09:59:31.552Z,100621.10
2023-04-22T10:02:04.309Z,100621.87
2023-04-22T10:04:34.694Z,100619.57
2023-04-22T10:07:04.021Z,100623.67
2023-04-22T10:09:34.639Z,100621.61
2023-04-22T10:12:03.989Z,100627.69
2023-04-22T10:14:33.280Z,100622.78
2023-04-22T10:17:04.103Z,100620.34
2023-04-22T10:19:34.511Z,100613.48
2023-04-22T10:22:05.211Z,100617.72
2023-04-22T10:24:37.960Z,100614.67
2023-04-22T10:27:08.367Z,100614.09
2023-04-22T10:29:40.155Z,100625.34
2023-04-22T10:32:22.110Z,100621.80
2023-04-22T10:34:53.287Z,100609.31
2023-04-22T10:37:22.744Z,100603.95
2023-04-22T10:40:12.008Z,100603.41
2023-04-22T10:42:42.707Z,100596.07
2023-04-22T10:45:16.056Z,100601.77
2023-04-22T10:47:46.433Z,100610.48
2023-04-22T10:50:18.966Z,100608.38
2023-04-22T10:52:49.150Z,100620.01
2023-04-22T10:55:18.589Z,100622.50
2023-04-22T10:57:49.933Z,100623.48
2023-04-22T11:00:41.759Z,100627.52
2023-04-22T11:03:14.067Z,100630.42
2023-04-22T11:05:44.297Z,100611.64
2023-04-22T11:11:27.006Z,100648.00
2023-04-22T11:13:56.892Z,100664.35
2023-04-22T11:16:26.917Z,100667.16
2023-04-22T11:18:57.702Z,100674.95
2023-04-22T11:21:27.873Z,100665.69
2023-04-22T11:24:05.199Z,100659.26
2023-04-22T11:26:36.184Z,100656.73
2023-04-22T11:29:06.245Z,100662.07
2023-04-22T11:31:36.896Z,100664.95
2023-04-22T11:34:06.356Z,100669.50
2023-04-22T11:36:35.837Z,100658.56
2023-04-22T11:39:08.628Z,100662.44
2023-04-22T11:41:38.199Z,100668.07
2023-04-22T11:44:07.516Z,100675.14
2023-04-22T11:46:38.826Z,100676.84
2023-04-22T11:49:18.711Z,100668.05
2023-04-22T11:51:56.504Z,100663.05
2023-04-22T11:54:33.108Z,100664.92
2023-04-22T11:57:11.734Z,100657.44
2023-04-22T11:59:41.322Z,100647.49
2023-04-22T12:02:11.348Z,100633.51
2023-04-22T12:04:41.937Z,100628.78
2023-04-22T12:07:11.676Z,100632.98
2023-04-22T12:09:41.624Z,100630.55
2023-04-22T12:12:11.464Z,100633.58
2023-04-22T12:14:41.094Z,100626.70
2023-04-22T12:17:12.230Z,100635.02
2023-04-22T12:19:42.067Z,100633.58
2023-04-22T12:22:11.597Z,100637.73
2023-04-22T12:24:44.186Z,100638.84
2023-04-22T12:27:12.738Z,100647.06
2023-04-22T12:29:45.721Z,100644.33
2023-04-22T12:32:14.979Z,100644.56
2023-04-22T12:34:44.358Z,100649.42
2023-04-22T12:37:13.972Z,100649.22
2023-04-22T12:39:43.422Z,100646.78
2023-04-22T12:42:12.866Z,100655.58
2023-04-22T12:44:43.566Z,100647.95
2023-04-22T12:47:12.980Z,100657.52
2023-04-22T12:49:43.563Z,100654.67
2023-04-22T12:52:13.336Z,100660.08
2023-04-22T12:54:42.742Z,100662.30
2023-04-22T12:57:12.154Z,100663.97
2023-04-22T12:59:41.990Z,100677.80
2023-04-22T13:02:11.530Z,100680.16
2023-04-22T13:04:41.025Z,100687.70
2023-04-22T13:07:11.026Z,100689.61
2023-04-22T13:09:40.646Z,100684.42
2023-04-22T13:12:10.217Z,100680.13
2023-04-22T13:14:39.600Z,100677.84
2023-04-22T13:17:08.867Z,100675.92
2023-04-22T13:19:38.412Z,100674.47
2023-04-22T13:22:07.762Z,100672.66
2023-04-22T13:24:37.337Z,100669.24
2023-04-22T13:27:07.648Z,100667.87
2023-04-22T13:29:37.134Z,100662.41
2023-04-22T13:32:06.984Z,100664.06
2023-04-22T13:34:36.449Z,100662.32
2023-04-22T13:37:06.232Z,100660.80
2023-04-22T13:39:35.672Z,100666.22
2023-04-22T13:42:05.664Z,100666.27
2023-04-22T13:44:35.214Z,100660.53
2023-04-22T13:47:04.572Z,100666.84
2023-04-22T13:49:33.923Z,100665.60
2023-04-22T13:52:03.330Z,100661.23
2023-04-22T13:54:32.614Z,100658.59
2023-04-22T13:57:03.473Z,100663.11
2023-04-22T13:59:34.731Z,100668.77
2023-04-22T14:02:04.077Z,100669.33
2023-04-22T14:04:34.712Z,100677.06
2023-04-22T14:07:04.258Z,100680.06
2023-04-22T14:09:34.722Z,100676.20
2023-04-22T14:12:05.043Z,100667.78
2023-04-22T14:14:34.658Z,100669.04
2023-04-22T14:17:03.997Z,100668.99
2023-04-22T14:19:33.990Z,100675.50
2023-04-22T14:22:03.286Z,100676.67
2023-04-22T14:24:33.298Z,100669.09
2023-04-22T14:27:02.604Z,100673.66
2023-04-22T14:29:32.373Z,100675.62
2023-04-22T14:32:02.199Z,100672.14
2023-04-22T14:34:31.542Z,100670.94
2023-04-22T14:37:00.960Z,100668.66
2023-04-22T14:39:30.388Z,100668.22
2023-04-22T14:41:59.877Z,100674.80
2023-04-22T14:44:29.512Z,100673.22
2023-04-22T14:46:58.872Z,100680.55
2023-04-22T14:49:28.457Z,100687.27
2023-04-22T14:51:59.399Z,100690.28
2023-04-22T14:54:29.314Z,100692.00
2023-04-22T14:56:58.929Z,100694.56
2023-04-22T14:59:28.268Z,100696.68
2023-04-22T15:01:57.901Z,100703.69
2023-04-22T15:04:27.651Z,100700.72
2023-04-22T15:06:57.877Z,100696.66
2023-04-22T15:09:27.847Z,100696.11
2023-04-22T15:11:59.138Z,100694.56
2023-04-22T15:14:28.379Z,100705.73
2023-04-22T15:16:57.763Z,100706.58
2023-04-22T15:19:27.034Z,100714.20
2023-04-22T15:21:56.329Z,100718.22
2023-04-22T15:24:25.793Z,100715.91
2023-04-22T15:26:56.728Z,100721.50
2023-04-22T15:29:27.873Z,100720.83
2023-04-22T15:31:57.933Z,100725.11
2023-04-22T15:34:27.366Z,100720.16
2023-04-22T15:36:56.772Z,100728.47
2023-04-22T15:39:26.297Z,100728.25
2023-04-22T15:41:55.721Z,100729.56
2023-04-22T15:44:25.043Z,100733.13
2023-04-22T15:46:54.464Z,100737.73
2023-04-22T15:49:25.063Z,100743.33
2023-04-22T15:51:54.917Z,100743.45
2023-04-22T15:54:24.180Z,100743.05
2023-04-22T15:56:53.811Z,100737.70
2023-04-22T15:59:23.080Z,100743.92
2023-04-22T16:01:52.748Z,100742.14
2023-04-22T16:04:22.329Z,100735.45
2023-04-22T16:06:51.903Z,100739.17
2023-04-22T16:09:21.194Z,100736.54
2023-04-22T16:11:51.164Z,100734.48
2023-04-22T16:14:20.778Z,100742.36
2023-04-22T16:16:50.307Z,100741.89
2023-04-22T16:19:19.619Z,100736.95
2023-04-22T16:21:49.101Z,100733.30
2023-04-22T16:24:18.368Z,100728.17
2023-04-22T16:26:47.746Z,100731.01
2023-04-22T16:29:17.416Z,100728.34
2023-04-22T16:31:47.126Z,100718.82
2023-04-22T16:34:16.864Z,100715.80
2023-04-22T16:36:46.484Z,100720.27
2023-04-22T16:39:16.420Z,100708.56
2023-04-22T16:41:45.941Z,100708.20
2023-04-22T16:44:15.335Z,100707.20
2023-04-22T16:46:45.031Z,100718.45
2023-04-22T16:49:14.644Z,100723.80
2023-04-22T16:51:43.940Z,100731.27
2023-04-22T16:54:13.253Z,100738.22
2023-04-22T16:56:42.852Z,100741.48
2023-04-22T16:59:12.235Z,100736.88
2023-04-22T17:01:44.540Z,100743.09
2023-04-22T17:04:13.916Z,100739.91
2023-04-22T17:06:44.423Z,100727.52
2023-04-22T17:09:13.769Z,100738.55
2023-04-22T17:11:43.171Z,100742.44
2023-04-22T17:14:12.552Z,100742.61
2023-04-22T17:16:41.878Z,100740.41
2023-04-22T17:19:11.913Z,100747.91
2023-04-22T17:21:41.267Z,100751.17
2023-04-22T17:24:10.815Z,100752.61
2023-04-22T17:26:40.564Z,100750.77
2023-04-22T17:29:10.249Z,100751.77
2023-04-22T17:31:40.304Z,100754.93
2023-04-22T17:34:09.901Z,100754.14
2023-04-22T17:36:39.173Z,100762.56
2023-04-22T17:39:08.926Z,100764.02
2023-04-22T17:41:38.250Z,100765.87
2023-04-22T17:44:08.922Z,100767.81
2023-04-22T17:46:38.388Z,100765.00
2023-04-22T17:49:08.070Z,100774.48
2023-04-22T17:51:37.794Z,100776.57
2023-04-22T17:54:08.068Z,100777.80
2023-04-22T17:56:37.787Z,100774.85
2023-04-22T17:59:07.532Z,100780.83
2023-04-22T18:01:38.829Z,100779.26
2023-04-22T18:04:08.652Z,100780.23
2023-04-22T18:06:38.411Z,100779.77
2023-04-22T18:09:08.510Z,100784.06
2023-04-22T18:11:37.769Z,100782.62
2023-04-22T18:14:08.024Z,100780.75
2023-04-22T18:16:37.954Z,100782.83
2023-04-22T18:19:07.438Z,100776.94
2023-04-22T18:21:39.726Z,100778.88
2023-04-22T18:24:08.460Z,100778.42
2023-04-22T18:26:37.782Z,100780.33
2023-04-22T18:29:08.745Z,100786.81
2023-04-22T18:31:38.238Z,100800.30
2023-04-22T18:34:08.272Z,100801.16
2023-04-22T18:36:38.064Z,100794.74
2023-04-22T18:39:07.604Z,100795.70
2023-04-22T18:41:39.096Z,100806.70
2023-04-22T18:44:08.502Z,100807.32
2023-04-22T18:46:37.983Z,100813.08
2023-04-22T18:49:09.119Z,100815.82
2023-04-22T18:51:42.234Z,100819.03
2023-04-22T18:54:13.296Z,100829.81
2023-04-22T18:56:42.865Z,100828.14
2023-04-22T18:59:14.262Z,100845.20
2023-04-22T19:01:44.054Z,100850.58
2023-04-22T19:04:13.722Z,100847.36
2023-04-22T19:06:43.402Z,100855.01
2023-04-22T19:09:12.752Z,100857.39
2023-04-22T19:11:42.282Z,100856.42
2023-04-22T19:14:13.306Z,100856.78
2023-04-22T19:16:43.069Z,100850.09
2023-04-22T19:19:12.636Z,100851.17
2023-04-22T19:21:42.056Z,100848.41
2023-04-22T19:24:13.096Z,100847.30
2023-04-22T19:26:42.802Z,100850.53
2023-04-22T19:29:13.904Z,100847.53
2023-04-22T19:31:44.935Z,100856.02
2023-04-22T19:34:14.485Z,100861.61
2023-04-22T19:36:44.250Z,100857.80
2023-04-22T19:39:14.028Z,100857.79
2023-04-22T19:41:43.583Z,100855.13
2023-04-22T19:44:13.369Z,100846.53
2023-04-22T19:46:42.954Z,100854.05
2023-04-22T19:49:12.858Z,100853.20
2023-04-22T19:51:43.884Z,100855.71
2023-04-22T19:54:14.318Z,100852.12
2023-04-22T19:56:45.976Z,100857.48
2023-04-22T19:59:15.726Z,100857.14
2023-04-22T20:01:46.630Z,100850.69
2023-04-22T20:04:16.294Z,100854.39
2023-04-22T20:06:47.353Z,100844.02
2023-04-22T20:09:17.173Z,100845.09
2023-04-22T20:11:48.828Z,100842.47
2023-04-22T20:14:19.005Z,100841.13
2023-04-22T20:16:50.122Z,100840.54
2023-04-22T20:19:19.981Z,100840.60
2023-04-22T20:21:50.201Z,100840.56
2023-04-22T20:24:20.104Z,100831.10
2023-04-22T20:26:50.271Z,100833.50
2023-04-22T20:29:19.951Z,100835.55
2023-04-22T20:31:52.188Z,100829.73
2023-04-22T20:34:21.689Z,100830.86
2023-04-22T20:36:55.020Z,100825.49
2023-04-22T20:39:25.705Z,100826.81
2023-04-22T20:41:59.668Z,100827.61
2023-04-22T20:44:29.317Z,100821.28
2023-04-22T20:46:58.971Z,100821.86
2023-04-22T20:49:28.449Z,100810.64
2023-04-22T20:51:58.055Z,100817.30
2023-04-22T20:54:29.383Z,100823.73
2023-04-22T20:57:00.658Z,100827.44
2023-04-22T20:59:30.541Z,100837.59
2023-04-22T21:02:03.760Z,100832.12
2023-04-22T21:04:33.898Z,100835.95
2023-04-22T21:07:07.572Z,100840.37
2023-04-22T21:09:37.059Z,100841.08
2023-04-22T21:12:08.218Z,100837.64
2023-04-22T21:14:43.466Z,100839.41
2023-04-22T21:17:25.470Z,100833.33
2023-04-22T21:19:57.343Z,100833.66
2023-04-22T21:22:27.384Z,100828.91
2023-04-22T21:24:56.873Z,100833.42
2023-04-22T21:27:28.515Z,100823.67
2023-04-22T21:29:58.630Z,100816.61
2023-04-22T21:32:29.566Z,100816.61
2023-04-22T21:34:58.950Z,100815.58
2023-04-22T21:37:28.357Z,100822.13
2023-04-22T21:40:00.430Z,100816.66
2023-04-22T21:42:29.826Z,100820.95
2023-04-22T21:44:59.122Z,100815.92
2023-04-22T21:47:28.705Z,100817.70
2023-04-22T21:49:58.096Z,100831.55
2023-04-22T21:52:27.756Z,100828.92
2023-04-22T21:54:57.050Z,100835.25
2023-04-22T21:57:26.437Z,100836.56
2023-04-22T21:59:56.270Z,100830.01
2023-04-22T22:02:26.706Z,100830.86
2023-04-22T22:04:56.318Z,100828.34
2023-04-22T22:07:26.856Z,100833.48
2023-04-22T22:09:58.785Z,100835.48
2023-04-22T22:12:28.097Z,100830.13
2023-04-22T22:14:57.697Z,100830.59
2023-04-22T22:17:27.793Z,100832.02
2023-04-22T22:19:57.477Z,100841.57
2023-04-22T22:22:26.852Z,100844.42
2023-04-22T22:24:56.221Z,100840.48
2023-04-22T22:27:26.372Z,100847.05
2023-04-22T22:29:56.065Z,100852.64
2023-04-22T22:32:25.435Z,100840.72
2023-04-22T22:34:54.979Z,100842.38
2023-04-22T22:37:24.625Z,100842.73
2023-04-22T22:39:53.954Z,100842.88
2023-04-22T22:42:23.284Z,100842.27
2023-04-22T22:44:52.643Z,100835.72
2023-04-22T22:47:21.878Z,100830.24
2023-04-22T22:49:51.307Z,100836.80
2023-04-22T22:52:20.704Z,100827.63
2023-04-22T22:54:50.594Z,100825.72
2023-04-22T22:57:19.879Z,100834.79
2023-04-22T22:59:49.176Z,100831.78
2023-04-22T23:02:18.881Z,100831.32
2023-04-22T23:04:48.484Z,100828.46
2023-04-22T23:07:17.867Z,100829.77
2023-04-22T23:09:47.398Z,100825.45
2023-04-22T23:12:16.738Z,100824.02
2023-04-22T23:14:46.580Z,100824.87
2023-04-22T23:17:17.398Z,100821.41
2023-04-22T23:19:47.374Z,100814.84
2023-04-22T23:22:17.022Z,100814.61
2023-04-22T23:24:46.734Z,100812.22
2023-04-22T23:27:17.388Z,100810.41
2023-04-22T23:29:46.975Z,100809.48
2023-04-22T23:32:16.835Z,100809.33
2023-04-22T23:34:46.926Z,100811.10
2023-04-22T23:37:16.452Z,100804.19
2023-04-22T23:39:46.031Z,100802.87
2023-04-22T23:42:15.327Z,100797.25
2023-04-22T23:44:46.651Z,100790.22
2023-04-22T23:47:15.969Z,100786.52
2023-04-22T23:49:46.292Z,100782.59
2023-04-22T23:52:15.677Z,100776.14
2023-04-22T23:54:45.164Z,100772.67
2023-04-22T23:57:14.870Z,100772.52
2023-04-22T23:59:44.654Z,100769.42
